KHYR/HYR METAR and TAF weather

Enter ICAO airport designator
Station Type Date Time Source
KHYR METAR 2019/06/17 06:53 UTC NOAA

KHYR 170653Z AUTO 00000KT 10SM CLR 08/08 A2999 RMK AO2 SLP156 T00830078


Station Type Date Time Source
KHYR Decoded METAR 2019/06/17 06:53 UTC NOAA

HAYWARD MUNICIPAL AIRPORT, WI, United States (KHYR) 46-01N 91-27W 370M
Jun 17, 2019 - 02:53 AM EDT / 2019.06.17 0653 UTC
Wind: Calm:0
Visibility: 10 mile(s):0
Sky conditions: clear
Temperature: 46.9 F (8.3 C)
Dew Point: 46.0 F (7.8 C)
Relative Humidity: 96%
Pressure (altimeter): 29.99 in. Hg (1015 hPa)
ob: KHYR 170653Z AUTO 00000KT 10SM CLR 08/08 A2999 RMK AO2 SLP156 T00830078
cycle: 7

Station Type Date Time Source
KHYR TAF 2019/06/17 06:30 UTC NOAA

TAF KHYR 170527Z 1706/1806 VRB03KT P6SM OVC100
FM170900 VRB04KT P6SM BKN060
FM171800 22006KT P6SM BKN050
FM180000 00000KT P6SM SCT050

Example: see airport list